createdAt,value
2022-11-20T00:01:33.245Z,-8.93
2022-11-20T00:04:01.553Z,-8.91
2022-11-20T00:06:29.980Z,-8.88
2022-11-20T00:09:00.002Z,-8.80
2022-11-20T00:11:29.376Z,-8.74
2022-11-20T00:13:59.988Z,-8.68
2022-11-20T00:16:30.973Z,-8.67
2022-11-20T00:18:58.733Z,-8.60
2022-11-20T00:21:28.515Z,-8.62
2022-11-20T00:23:57.361Z,-8.70
2022-11-20T00:26:27.047Z,-8.82
2022-11-20T00:29:00.183Z,-9.12
2022-11-20T00:31:28.796Z,-9.17
2022-11-20T00:33:56.497Z,-9.17
2022-11-20T00:36:26.694Z,-9.19
2022-11-20T00:38:56.011Z,-9.12
2022-11-20T00:41:24.469Z,-9.19
2022-11-20T00:43:56.489Z,-9.30
2022-11-20T00:46:26.931Z,-9.46
2022-11-20T00:48:55.041Z,-9.47
2022-11-20T00:51:25.212Z,-9.41
2022-11-20T00:53:52.838Z,-9.32
2022-11-20T00:56:21.309Z,-9.35
2022-11-20T00:58:49.808Z,-9.40
2022-11-20T01:01:20.398Z,-9.46
2022-11-20T01:03:50.305Z,-9.61
2022-11-20T01:06:19.219Z,-9.65
2022-11-20T01:08:47.928Z,-9.68
2022-11-20T01:11:21.044Z,-9.68
2022-11-20T01:13:50.513Z,-9.56
2022-11-20T01:16:21.093Z,-9.51
2022-11-20T01:18:52.519Z,-9.51
2022-11-20T01:21:23.170Z,-9.45
2022-11-20T01:23:52.364Z,-9.47
2022-11-20T01:26:22.379Z,-9.60
2022-11-20T01:28:50.661Z,-9.70
2022-11-20T01:31:24.519Z,-9.94
2022-11-20T01:33:54.827Z,-10.12
2022-11-20T01:36:25.599Z,-10.24
2022-11-20T01:38:54.761Z,-10.20
2022-11-20T01:41:42.232Z,-10.08
2022-11-20T01:44:12.388Z,-9.88
2022-11-20T01:46:41.980Z,-9.67
2022-11-20T01:49:27.970Z,-9.65
2022-11-20T01:52:06.255Z,-9.79
2022-11-20T01:54:45.977Z,-9.98
2022-11-20T01:57:14.926Z,-10.07
2022-11-20T01:59:49.140Z,-10.11
2022-11-20T02:02:19.671Z,-10.20
2022-11-20T02:04:48.719Z,-10.28
2022-11-20T02:07:17.855Z,-10.32
2022-11-20T02:09:45.531Z,-10.35
2022-11-20T02:12:33.174Z,-10.50
2022-11-20T02:15:00.890Z,-10.63
2022-11-20T02:17:29.016Z,-10.63
2022-11-20T02:19:56.938Z,-10.67
2022-11-20T02:22:40.452Z,-10.73
2022-11-20T02:25:09.377Z,-10.75
2022-11-20T02:27:37.546Z,-10.79
2022-11-20T02:30:08.841Z,-10.82
2022-11-20T02:32:37.503Z,-10.83
2022-11-20T02:35:30.921Z,-10.83
2022-11-20T02:38:02.293Z,-10.95
2022-11-20T02:40:30.425Z,-11.08
2022-11-20T02:42:58.694Z,-11.18
2022-11-20T02:45:26.667Z,-11.26
2022-11-20T02:47:54.578Z,-11.32
2022-11-20T02:50:22.325Z,-11.25
2022-11-20T02:52:50.070Z,-11.26
2022-11-20T02:55:18.040Z,-11.33
2022-11-20T02:57:45.710Z,-11.37
2022-11-20T03:00:13.868Z,-11.41
2022-11-20T03:02:41.550Z,-11.44
2022-11-20T03:05:09.525Z,-11.45
2022-11-20T03:07:37.235Z,-11.49
2022-11-20T03:10:06.041Z,-11.49
2022-11-20T03:12:33.632Z,-11.36
2022-11-20T03:15:01.298Z,-11.22
2022-11-20T03:17:30.555Z,-11.19
2022-11-20T03:19:58.197Z,-11.21
2022-11-20T03:22:25.831Z,-11.21
2022-11-20T03:24:53.544Z,-11.22
2022-11-20T03:27:21.252Z,-11.22
2022-11-20T03:29:48.914Z,-11.18
2022-11-20T03:32:16.543Z,-11.18
2022-11-20T03:34:44.181Z,-11.18
2022-11-20T03:37:11.929Z,-11.15
2022-11-20T03:39:39.616Z,-11.10
2022-11-20T03:42:27.211Z,-11.05
2022-11-20T03:44:54.873Z,-10.95
2022-11-20T03:47:22.549Z,-10.83
2022-11-20T03:49:50.843Z,-10.65
2022-11-20T03:52:18.474Z,-10.46
2022-11-20T03:54:46.134Z,-10.39
2022-11-20T03:57:13.773Z,-10.41
2022-11-20T03:59:41.438Z,-10.43
2022-11-20T04:02:09.140Z,-10.38
2022-11-20T04:04:36.879Z,-10.32
2022-11-20T04:07:04.569Z,-10.26
2022-11-20T04:09:32.263Z,-10.42
2022-11-20T04:11:59.883Z,-10.64
2022-11-20T04:14:27.502Z,-10.67
2022-11-20T04:16:55.325Z,-10.59
2022-11-20T04:19:23.446Z,-10.35
2022-11-20T04:21:51.236Z,-10.15
2022-11-20T04:24:18.953Z,-10.04
2022-11-20T04:26:46.689Z,-10.09
2022-11-20T04:29:14.385Z,-10.25
2022-11-20T04:31:42.097Z,-10.35
2022-11-20T04:34:12.937Z,-10.45
2022-11-20T04:36:40.670Z,-10.50
2022-11-20T04:39:08.322Z,-10.40
2022-11-20T04:41:37.713Z,-10.22
2022-11-20T04:44:07.094Z,-10.19
2022-11-20T04:46:38.689Z,-10.31
2022-11-20T04:49:07.634Z,-10.36
2022-11-20T04:51:35.340Z,-10.30
2022-11-20T04:54:03.186Z,-10.22
2022-11-20T04:56:30.966Z,-10.25
2022-11-20T04:59:02.762Z,-10.24
2022-11-20T05:01:30.684Z,-10.26
2022-11-20T05:03:58.415Z,-10.23
2022-11-20T05:06:26.161Z,-10.25
2022-11-20T05:08:53.843Z,-10.23
2022-11-20T05:11:22.352Z,-10.39
2022-11-20T05:13:51.633Z,-10.62
2022-11-20T05:16:22.078Z,-10.74
2022-11-20T05:18:51.353Z,-10.52
2022-11-20T05:21:19.489Z,-10.42
2022-11-20T05:23:48.078Z,-10.50
2022-11-20T05:26:23.312Z,-10.49
2022-11-20T05:28:52.173Z,-10.47
2022-11-20T05:31:27.198Z,-10.46
2022-11-20T05:33:57.036Z,-10.62
2022-11-20T05:36:25.150Z,-10.52
2022-11-20T05:38:56.627Z,-10.52
2022-11-20T05:41:27.602Z,-10.47
2022-11-20T05:43:55.230Z,-10.39
2022-11-20T05:46:28.179Z,-10.34
2022-11-20T05:48:58.313Z,-10.22
2022-11-20T05:51:27.331Z,-10.32
2022-11-20T05:53:57.654Z,-10.56
2022-11-20T05:56:25.454Z,-10.48
2022-11-20T05:58:53.135Z,-10.34
2022-11-20T06:01:26.537Z,-10.25
2022-11-20T06:03:55.410Z,-10.19
2022-11-20T06:06:23.678Z,-10.21
2022-11-20T06:08:51.393Z,-10.24
2022-11-20T06:11:19.236Z,-10.19
2022-11-20T06:13:47.549Z,-10.12
2022-11-20T06:16:17.895Z,-10.25
2022-11-20T06:18:46.291Z,-10.45
2022-11-20T06:21:17.364Z,-10.46
2022-11-20T06:23:51.095Z,-10.47
2022-11-20T06:26:24.775Z,-10.50
2022-11-20T06:28:53.283Z,-10.54
2022-11-20T06:31:24.839Z,-10.59
2022-11-20T06:33:53.406Z,-10.60
2022-11-20T06:36:23.350Z,-10.69
2022-11-20T06:38:51.993Z,-10.69
2022-11-20T06:41:22.194Z,-10.67
2022-11-20T06:43:50.428Z,-10.74
2022-11-20T06:46:19.810Z,-10.84
2022-11-20T06:48:48.862Z,-10.76
2022-11-20T06:51:16.752Z,-10.67
2022-11-20T06:53:44.761Z,-10.64
2022-11-20T06:56:12.822Z,-10.65
2022-11-20T06:58:41.494Z,-10.66
2022-11-20T07:01:14.844Z,-10.70
2022-11-20T07:03:43.222Z,-10.80
2022-11-20T07:06:14.701Z,-10.77
2022-11-20T07:08:42.344Z,-10.73
2022-11-20T07:11:13.146Z,-10.65
2022-11-20T07:13:40.688Z,-10.63
2022-11-20T07:16:09.524Z,-10.59
2022-11-20T07:18:37.888Z,-10.53
2022-11-20T07:21:08.352Z,-10.51
2022-11-20T07:23:36.806Z,-10.42
2022-11-20T07:26:09.520Z,-10.25
2022-11-20T07:28:38.137Z,-10.12
2022-11-20T07:31:08.251Z,-9.97
2022-11-20T07:33:36.394Z,-9.85
2022-11-20T07:36:04.753Z,-9.77
2022-11-20T07:38:32.433Z,-9.70
2022-11-20T07:41:02.684Z,-9.57
2022-11-20T07:43:30.752Z,-9.46
2022-11-20T07:46:00.402Z,-9.37
2022-11-20T07:48:28.385Z,-9.26
2022-11-20T07:50:57.121Z,-9.15
2022-11-20T07:53:25.385Z,-9.02
2022-11-20T07:55:53.691Z,-8.91
2022-11-20T07:58:22.352Z,-8.82
2022-11-20T08:00:50.218Z,-8.73
2022-11-20T08:03:21.861Z,-8.66
2022-11-20T08:05:52.805Z,-8.58
2022-11-20T08:08:21.031Z,-8.52
2022-11-20T08:10:48.762Z,-8.43
2022-11-20T08:13:34.816Z,-8.40
2022-11-20T08:16:02.504Z,-8.30
2022-11-20T08:18:32.221Z,-8.25
2022-11-20T08:21:05.629Z,-8.20
2022-11-20T08:23:33.528Z,-8.15
2022-11-20T08:26:01.213Z,-8.13
2022-11-20T08:28:29.154Z,-8.09
2022-11-20T08:31:01.891Z,-8.01
2022-11-20T08:33:30.904Z,-7.93
2022-11-20T08:36:02.634Z,-7.94
2022-11-20T08:38:31.108Z,-7.90
2022-11-20T08:41:23.011Z,-7.85
2022-11-20T08:44:10.932Z,-7.79
2022-11-20T08:46:42.151Z,-7.69
2022-11-20T08:49:12.439Z,-7.61
2022-11-20T08:51:40.589Z,-7.58
2022-11-20T08:54:08.987Z,-7.50
2022-11-20T08:56:37.207Z,-7.49
2022-11-20T09:01:52.644Z,-7.40
2022-11-20T09:04:20.419Z,-7.32
2022-11-20T09:06:52.230Z,-7.23
2022-11-20T09:09:20.447Z,-7.16
2022-11-20T09:11:48.436Z,-7.07
2022-11-20T09:14:16.493Z,-7.03
2022-11-20T09:16:47.051Z,-6.96
2022-11-20T09:22:02.429Z,-6.99
2022-11-20T09:24:30.130Z,-7.02
2022-11-20T09:26:57.927Z,-7.02
2022-11-20T09:29:25.547Z,-7.03
2022-11-20T09:31:53.211Z,-7.05
2022-11-20T09:34:20.819Z,-7.04
2022-11-20T09:36:48.512Z,-6.99
2022-11-20T09:39:16.548Z,-6.93
2022-11-20T09:41:56.024Z,-6.86
2022-11-20T09:44:49.988Z,-6.92
2022-11-20T09:47:37.814Z,-6.88
2022-11-20T09:50:37.573Z,-6.80
2022-11-20T09:53:21.356Z,-6.77
2022-11-20T09:55:49.968Z,-6.89
2022-11-20T09:58:30.817Z,-6.94
2022-11-20T10:01:13.374Z,-6.92
2022-11-20T10:03:58.310Z,-6.93
2022-11-20T10:06:32.725Z,-7.05
2022-11-20T10:09:09.460Z,-7.11
2022-11-20T10:11:59.879Z,-7.11
2022-11-20T10:14:59.695Z,-6.99
2022-11-20T10:18:25.748Z,-6.93
2022-11-20T10:21:00.342Z,-6.82
2022-11-20T10:23:42.638Z,-6.83
2022-11-20T10:26:48.133Z,-6.87
2022-11-20T10:29:23.687Z,-6.85
2022-11-20T10:32:01.712Z,-6.75
2022-11-20T10:34:46.092Z,-6.65
2022-11-20T10:37:22.424Z,-6.58
2022-11-20T10:40:03.093Z,-6.68
2022-11-20T10:42:58.448Z,-6.64
2022-11-20T10:45:26.021Z,-6.59
2022-11-20T10:48:14.241Z,-6.71
2022-11-20T10:50:56.163Z,-6.78
2022-11-20T10:53:46.605Z,-6.78
2022-11-20T10:56:39.292Z,-6.75
2022-11-20T10:59:44.362Z,-6.65
2022-11-20T11:02:24.049Z,-6.57
2022-11-20T11:04:55.581Z,-6.42
2022-11-20T11:07:37.851Z,-6.39
2022-11-20T11:10:25.775Z,-6.49
2022-11-20T11:12:53.470Z,-6.45
2022-11-20T11:15:42.030Z,-6.32
2022-11-20T11:18:11.477Z,-6.19
2022-11-20T11:20:39.305Z,-6.19
2022-11-20T11:23:29.788Z,-6.15
2022-11-20T11:25:59.972Z,-6.06
2022-11-20T11:28:28.959Z,-6.09
2022-11-20T11:30:57.110Z,-6.00
2022-11-20T11:33:37.132Z,-5.98
2022-11-20T11:36:17.644Z,-5.94
2022-11-20T11:38:45.613Z,-5.90
2022-11-20T11:41:18.724Z,-5.86
2022-11-20T11:44:17.684Z,-5.87
2022-11-20T11:46:54.103Z,-5.92
2022-11-20T11:49:22.940Z,-6.10
2022-11-20T11:52:02.931Z,-6.14
2022-11-20T11:54:54.399Z,-6.07
2022-11-20T11:57:40.296Z,-5.97
2022-11-20T12:00:14.660Z,-5.89
2022-11-20T12:02:51.303Z,-5.79
2022-11-20T12:05:30.611Z,-5.84
2022-11-20T12:08:12.144Z,-5.94
2022-11-20T12:10:52.111Z,-5.95
2022-11-20T12:13:28.492Z,-6.04
2022-11-20T12:15:56.196Z,-6.04
2022-11-20T12:18:24.069Z,-6.04
2022-11-20T12:21:14.512Z,-6.00
2022-11-20T12:24:00.533Z,-5.95
2022-11-20T12:26:43.640Z,-5.90
2022-11-20T12:29:42.164Z,-5.88
2022-11-20T12:32:15.773Z,-5.91
2022-11-20T12:35:11.996Z,-5.92
2022-11-20T12:38:12.578Z,-5.86
2022-11-20T12:41:11.366Z,-5.89
2022-11-20T12:44:36.174Z,-5.97
2022-11-20T12:47:16.334Z,-5.99
2022-11-20T12:50:02.014Z,-5.99
2022-11-20T12:52:59.698Z,-6.04
2022-11-20T12:55:42.266Z,-6.01
2022-11-20T12:58:45.356Z,-5.90
2022-11-20T13:01:43.797Z,-5.79
2022-11-20T13:04:17.246Z,-5.74
2022-11-20T13:06:45.762Z,-5.71
2022-11-20T13:09:17.325Z,-5.78
2022-11-20T13:12:07.238Z,-5.90
2022-11-20T13:14:51.654Z,-5.88
2022-11-20T13:17:32.672Z,-5.79
2022-11-20T13:20:00.785Z,-5.77
2022-11-20T13:22:30.751Z,-5.77
2022-11-20T13:24:58.454Z,-5.82
2022-11-20T13:27:26.206Z,-5.80
2022-11-20T13:30:18.341Z,-5.80
2022-11-20T13:32:56.772Z,-5.79
2022-11-20T13:35:36.310Z,-5.79
2022-11-20T13:38:09.649Z,-5.70
2022-11-20T13:40:55.910Z,-5.74
2022-11-20T13:43:29.612Z,-5.80
2022-11-20T13:46:05.216Z,-5.72
2022-11-20T13:48:39.328Z,-5.66
2022-11-20T13:51:25.229Z,-5.80
2022-11-20T13:54:25.515Z,-5.81
2022-11-20T13:57:11.890Z,-5.74
2022-11-20T13:59:55.095Z,-5.68
2022-11-20T14:02:26.177Z,-5.76
2022-11-20T14:04:54.980Z,-5.80
2022-11-20T14:07:28.208Z,-5.82
2022-11-20T14:09:58.647Z,-5.85
2022-11-20T14:12:32.206Z,-5.86
2022-11-20T14:15:00.639Z,-5.80
2022-11-20T14:17:34.846Z,-5.85
2022-11-20T14:20:06.602Z,-5.79
2022-11-20T14:22:34.433Z,-5.78
2022-11-20T14:25:24.588Z,-5.80
2022-11-20T14:27:58.321Z,-5.90
2022-11-20T14:30:40.419Z,-5.85
2022-11-20T14:33:08.145Z,-5.85
2022-11-20T14:35:41.717Z,-5.79
2022-11-20T14:38:14.626Z,-5.75
2022-11-20T14:40:43.507Z,-5.68
2022-11-20T14:43:22.834Z,-5.67
2022-11-20T14:46:00.481Z,-5.63
2022-11-20T14:48:40.423Z,-5.55
2022-11-20T14:51:11.750Z,-5.50
2022-11-20T14:53:39.476Z,-5.44
2022-11-20T14:56:07.197Z,-5.41
2022-11-20T14:58:35.189Z,-5.44
2022-11-20T15:01:08.741Z,-5.44
2022-11-20T15:03:41.498Z,-5.46
2022-11-20T15:06:12.870Z,-5.53
2022-11-20T15:08:52.964Z,-5.61
2022-11-20T15:11:31.594Z,-5.71
2022-11-20T15:14:04.569Z,-5.72
2022-11-20T15:16:32.437Z,-5.70
2022-11-20T15:19:01.292Z,-5.81
2022-11-20T15:21:29.230Z,-6.00
2022-11-20T15:23:58.099Z,-6.04
2022-11-20T15:26:27.844Z,-6.05
2022-11-20T15:28:55.592Z,-6.03
2022-11-20T15:31:24.579Z,-5.95
2022-11-20T15:33:52.278Z,-5.93
2022-11-20T15:36:19.999Z,-6.07
2022-11-20T15:38:47.797Z,-6.06
2022-11-20T15:41:15.519Z,-6.08
2022-11-20T15:43:43.180Z,-6.10
2022-11-20T15:46:15.236Z,-6.07
2022-11-20T15:48:48.326Z,-6.07
2022-11-20T15:51:35.990Z,-6.03
2022-11-20T15:54:19.278Z,-6.10
2022-11-20T15:56:53.396Z,-6.14
2022-11-20T15:59:21.532Z,-6.17
2022-11-20T16:01:49.296Z,-6.13
2022-11-20T16:04:17.860Z,-6.16
2022-11-20T16:06:45.557Z,-6.28
2022-11-20T16:09:13.209Z,-6.34
2022-11-20T16:11:41.114Z,-6.27
2022-11-20T16:14:30.449Z,-6.20
2022-11-20T16:16:58.138Z,-6.18
2022-11-20T16:19:25.744Z,-6.19
2022-11-20T16:21:55.147Z,-6.26
2022-11-20T16:24:25.086Z,-6.28
2022-11-20T16:26:54.775Z,-6.21
2022-11-20T16:29:22.472Z,-6.23
2022-11-20T16:31:50.165Z,-6.33
2022-11-20T16:34:18.071Z,-6.30
2022-11-20T16:36:46.078Z,-6.39
2022-11-20T16:39:19.020Z,-6.45
2022-11-20T16:41:50.134Z,-6.35
2022-11-20T16:44:17.818Z,-6.35
2022-11-20T16:46:45.408Z,-6.38
2022-11-20T16:49:14.576Z,-6.33
2022-11-20T16:51:43.020Z,-6.34
2022-11-20T16:54:15.056Z,-6.33
2022-11-20T16:56:48.135Z,-6.28
2022-11-20T16:59:15.805Z,-6.30
2022-11-20T17:01:44.196Z,-6.31
2022-11-20T17:04:11.937Z,-6.30
2022-11-20T17:06:44.394Z,-6.29
2022-11-20T17:09:13.007Z,-6.27
2022-11-20T17:11:41.363Z,-6.23
2022-11-20T17:14:11.314Z,-6.33
2022-11-20T17:16:39.183Z,-6.33
2022-11-20T17:19:06.944Z,-6.32
2022-11-20T17:21:36.439Z,-6.39
2022-11-20T17:24:05.816Z,-6.49
2022-11-20T17:26:34.465Z,-6.47
2022-11-20T17:29:14.556Z,-6.42
2022-11-20T17:31:43.436Z,-6.45
2022-11-20T17:34:13.513Z,-6.42
2022-11-20T17:36:45.672Z,-6.36
2022-11-20T17:39:15.181Z,-6.36
2022-11-20T17:41:43.326Z,-6.34
2022-11-20T17:44:12.289Z,-6.35
2022-11-20T17:46:40.323Z,-6.40
2022-11-20T17:49:08.106Z,-6.37
2022-11-20T17:51:35.983Z,-6.35
2022-11-20T17:54:07.527Z,-6.33
2022-11-20T17:56:55.022Z,-6.37
2022-11-20T17:59:23.144Z,-6.39
2022-11-20T18:01:50.905Z,-6.38
2022-11-20T18:04:18.613Z,-6.37
2022-11-20T18:06:46.490Z,-6.33
2022-11-20T18:09:14.199Z,-6.29
2022-11-20T18:11:42.927Z,-6.31
2022-11-20T18:14:36.528Z,-6.32
2022-11-20T18:17:09.832Z,-6.30
2022-11-20T18:19:51.678Z,-6.26
2022-11-20T18:22:34.779Z,-6.32
2022-11-20T18:25:03.792Z,-6.32
2022-11-20T18:27:31.805Z,-6.32
2022-11-20T18:29:59.743Z,-6.31
2022-11-20T18:32:27.637Z,-6.31
2022-11-20T18:34:55.511Z,-6.26
2022-11-20T18:37:23.441Z,-6.25
2022-11-20T18:39:51.164Z,-6.18
2022-11-20T18:42:37.825Z,-6.15
2022-11-20T18:45:06.511Z,-6.07
2022-11-20T18:47:40.295Z,-6.04
2022-11-20T18:50:09.922Z,-6.05
2022-11-20T18:52:44.542Z,-6.03
2022-11-20T18:55:13.086Z,-5.98
2022-11-20T18:57:41.186Z,-5.94
2022-11-20T19:00:10.149Z,-5.99
2022-11-20T19:05:26.562Z,-6.06
2022-11-20T19:07:54.427Z,-6.02
2022-11-20T19:10:24.535Z,-6.06
2022-11-20T19:12:52.276Z,-6.15
2022-11-20T19:15:20.518Z,-6.17
2022-11-20T19:17:48.145Z,-6.24
2022-11-20T19:20:15.784Z,-6.27
2022-11-20T19:22:43.418Z,-6.34
2022-11-20T19:25:11.057Z,-6.40
2022-11-20T19:27:38.765Z,-6.41
2022-11-20T19:30:06.861Z,-6.43
2022-11-20T19:32:35.449Z,-6.43
2022-11-20T19:35:03.881Z,-6.44
2022-11-20T19:37:35.012Z,-6.37
2022-11-20T19:40:04.902Z,-6.41
2022-11-20T19:42:32.923Z,-6.42
2022-11-20T19:45:00.632Z,-6.36
2022-11-20T19:47:52.729Z,-6.31
2022-11-20T19:50:16.221Z,-6.28
2022-11-20T19:52:43.876Z,-6.20
2022-11-20T19:55:11.549Z,-6.14
2022-11-20T19:57:42.091Z,-6.10
2022-11-20T20:00:10.921Z,-6.08
2022-11-20T20:02:38.684Z,-6.08
2022-11-20T20:05:06.906Z,-6.02
2022-11-20T20:07:34.605Z,-6.00
2022-11-20T20:10:02.364Z,-5.96
2022-11-20T20:12:29.993Z,-5.96
2022-11-20T20:14:57.685Z,-5.97
2022-11-20T20:17:25.318Z,-6.03
2022-11-20T20:19:52.964Z,-6.05
2022-11-20T20:22:20.592Z,-6.04
2022-11-20T20:24:48.217Z,-6.10
2022-11-20T20:27:15.847Z,-6.12
2022-11-20T20:29:43.486Z,-6.23
2022-11-20T20:32:11.136Z,-6.25
2022-11-20T20:34:38.853Z,-6.20
2022-11-20T20:37:06.505Z,-6.19
2022-11-20T20:39:34.360Z,-6.11
2022-11-20T20:42:02.090Z,-6.09
2022-11-20T20:44:48.270Z,-6.03
2022-11-20T20:47:15.928Z,-5.97
2022-11-20T20:49:43.557Z,-5.96
2022-11-20T20:52:11.278Z,-5.92
2022-11-20T20:54:38.930Z,-5.94
2022-11-20T20:57:06.576Z,-5.95
2022-11-20T20:59:35.126Z,-5.92
2022-11-20T21:02:02.817Z,-5.92
2022-11-20T21:04:30.527Z,-5.84
2022-11-20T21:06:58.329Z,-5.74
2022-11-20T21:09:26.114Z,-5.67
2022-11-20T21:11:53.768Z,-5.62
2022-11-20T21:14:21.890Z,-5.61
2022-11-20T21:16:49.882Z,-5.61
2022-11-20T21:19:17.513Z,-5.53
2022-11-20T21:22:00.555Z,-5.47
2022-11-20T21:24:36.375Z,-5.46
2022-11-20T21:27:06.223Z,-5.38
2022-11-20T21:29:33.858Z,-5.40
2022-11-20T21:32:01.562Z,-5.35
2022-11-20T21:34:29.226Z,-5.29
2022-11-20T21:36:56.923Z,-5.25
2022-11-20T21:39:24.644Z,-5.23
2022-11-20T21:41:52.288Z,-5.17
2022-11-20T21:44:35.337Z,-5.11
2022-11-20T21:47:02.992Z,-5.09
2022-11-20T21:49:30.769Z,-5.05
2022-11-20T21:51:58.440Z,-4.99
2022-11-20T21:54:26.729Z,-4.94
2022-11-20T21:56:54.738Z,-4.89
2022-11-20T21:59:22.706Z,-4.86
2022-11-20T22:01:51.221Z,-4.84
2022-11-20T22:04:18.961Z,-4.80
2022-11-20T22:06:46.690Z,-4.77
2022-11-20T22:09:14.765Z,-4.73
2022-11-20T22:11:42.832Z,-4.71
2022-11-20T22:14:20.805Z,-4.69
2022-11-20T22:16:51.167Z,-4.67
2022-11-20T22:19:23.757Z,-4.65
2022-11-20T22:21:52.338Z,-4.63
2022-11-20T22:24:23.665Z,-4.63
2022-11-20T22:26:52.227Z,-4.59
2022-11-20T22:29:21.343Z,-4.60
2022-11-20T22:31:52.232Z,-4.61
2022-11-20T22:34:23.715Z,-4.60
2022-11-20T22:36:52.346Z,-4.58
2022-11-20T22:39:23.357Z,-4.56
2022-11-20T22:41:51.759Z,-4.54
2022-11-20T22:44:20.173Z,-4.49
2022-11-20T22:46:48.633Z,-4.46
2022-11-20T22:49:17.142Z,-4.44
2022-11-20T22:51:45.498Z,-4.45
2022-11-20T22:54:14.238Z,-4.47
2022-11-20T22:56:42.880Z,-4.43
2022-11-20T22:59:11.749Z,-4.43
2022-11-20T23:01:40.053Z,-4.41
2022-11-20T23:04:11.280Z,-4.41
2022-11-20T23:06:39.978Z,-4.39
2022-11-20T23:09:09.233Z,-4.36
2022-11-20T23:11:37.932Z,-4.36
2022-11-20T23:14:12.282Z,-4.34
2022-11-20T23:16:41.956Z,-4.33
2022-11-20T23:19:13.597Z,-4.28
2022-11-20T23:21:43.236Z,-4.28
2022-11-20T23:24:12.069Z,-4.26
2022-11-20T23:26:41.848Z,-4.26
2022-11-20T23:29:10.361Z,-4.25
2022-11-20T23:31:41.548Z,-4.24
2022-11-20T23:34:10.085Z,-4.26
2022-11-20T23:36:41.550Z,-4.28
2022-11-20T23:39:12.401Z,-4.27
2022-11-20T23:41:42.675Z,-4.28
2022-11-20T23:44:11.201Z,-4.32
2022-11-20T23:46:39.183Z,-4.30
2022-11-20T23:49:07.551Z,-4.27
2022-11-20T23:51:36.823Z,-4.28
2022-11-20T23:54:05.149Z,-4.31
2022-11-20T23:56:33.634Z,-4.32
2022-11-20T23:59:01.807Z,-4.37
